Flight Track Log - Related Links

Times and Time Zones

All times are in EDT time to prevent confusion due to time zone crossing. See the DAL6197 flight status page for this flight to view local times or setup timezone preferences in your user account.

Time Position Orientation Groundspeed Altitude Reporting Facility
EDT Latitude Longitude Course Direction KTS MPH feet Rate Location/Type
Sat 12:06:42 PM 40.7500 -73.9000 201° Southwest 147 169 1,600  Level New York TRACON
Sat 12:07:43 PM 40.7000 -73.9000 180° South 212 244 4,000 2,826 Climbing New York TRACON
Sat 12:08:43 PM 40.6333 -73.9000 180° South 231 266 7,300 3,050 Climbing New York TRACON
Sat 12:09:43 PM 40.5833 -73.9167 194° South 236 272 10,100 2,350 Climbing New York TRACON
Sat 12:10:43 PM 40.5333 -73.9833 225° Southwest 240 276 12,000 1,053 Climbing New York TRACON
Sat 12:11:37 PM 40.5333 -74.0667 270° West 233 268 12,100 100 Climbing New York TRACON
Sat 12:12:00 PM 40.3148 -74.0843 201° Southwest  Level FlightAware Approximate
Sat 12:12:43 PM 40.5000 -74.1500 242° Southwest 245 282 12,200  Level New York TRACON
Sat 12:13:43 PM 40.4167 -74.1667 189° South 328 377 13,500 1,806 Climbing New York TRACON
Sat 12:14:26 PM 40.3456 -74.1806 188° South 338 389 15,300 2,039 Climbing New York Center
Sat 12:15:26 PM 40.2619 -74.1981 189° South 338 389 17,000 1,150 Climbing New York Center
Sat 12:16:26 PM 40.1675 -74.2206 190° South 338 389 17,600 1,100 Climbing New York Center
Sat 12:17:26 PM 40.0711 -74.2375 188° South 343 395 19,200 1,539 Climbing New York Center
Sat 12:19:37 PM 39.8761 -74.3722 208° Southwest 346 398 22,500 1,524 Climbing Washington Center
Sat 12:20:35 PM 39.7978 -74.4572 220° Southwest 366 421 24,000 1,361 Climbing Washington Center
Sat 12:21:36 PM 39.7278 -74.5528 226° Southwest 366 421 25,200 942 Climbing Washington Center
Sat 12:22:36 PM 39.6536 -74.6483 225° Southwest 371 427 25,900 400 Climbing Washington Center
Sat 12:23:36 PM 39.5792 -74.7433 225° Southwest 376 433 26,000 50 Climbing Washington Center
Sat 12:24:37 PM 39.5069 -74.8411 226° Southwest 381 438 26,000  Level Washington Center
Sat 12:25:36 PM 39.4344 -74.9358 225° Southwest 381 438 26,000  Level Washington Center
Sat 12:26:36 PM 39.3683 -75.0225 225° Southwest 381 438 26,000  Level Washington Center
Sat 12:27:37 PM 39.2958 -75.1169 225° Southwest 381 438 26,000  Level Washington Center
Sat 12:28:35 PM 39.2211 -75.2164 226° Southwest 381 438 26,000  Level Washington Center
Sat 12:29:36 PM 39.1486 -75.3106 225° Southwest 381 438 26,000  Level Washington Center
Sat 12:30:37 PM 39.0758 -75.4044 225° Southwest 381 438 26,000  Level Washington Center
Sat 12:31:37 PM 39.0008 -75.5008 225° Southwest 381 438 26,000  Level Washington Center
Sat 12:32:35 PM 38.9258 -75.5942 224° Southwest 381 438 26,000  Level Washington Center
Sat 12:33:36 PM 38.8694 -75.7036 237° Southwest 381 438 26,000  Level Washington Center
Sat 12:34:36 PM 38.8358 -75.8208 250° West 359 413 26,000  Level Washington Center
Sat 12:35:37 PM 38.7939 -75.9325 244° Southwest 354 407 26,000  Level Washington Center
Sat 12:36:35 PM 38.7125 -76.0094 216° Southwest 354 407 26,000 -252 Level Washington Center
Sat 12:37:36 PM 38.6289 -76.0858 216° Southwest 359 413 25,500 -694 Descending Washington Center
Sat 12:38:36 PM 38.5325 -76.1756 216° Southwest 384 442 24,600 -843 Descending Washington Center
Sat 12:39:37 PM 38.4508 -76.2517 216° Southwest 384 442 23,800 -800 Descending Washington Center
Sat 12:40:36 PM 38.3689 -76.3278 216° Southwest 379 436 23,000 -800 Descending Washington Center
Sat 12:41:37 PM 38.2914 -76.4011 217° Southwest 365 420 22,200 -504 Descending Washington Center
Sat 12:42:35 PM 38.2219 -76.4903 225° Southwest 355 409 22,000 -102 Descending Washington Center
Sat 12:43:35 PM 38.1544 -76.5819 227° Southwest 355 409 22,000  Level Washington Center
Sat 12:44:37 PM 38.0767 -76.6469 213° Southwest 364 419 22,000  Level Washington Center
Sat 12:45:35 PM 37.9844 -76.7036 206° Southwest 374 430 22,000  Level Washington Center
Sat 12:46:35 PM 37.8922 -76.7628 207° Southwest 374 430 22,000  Level Washington Center
Sat 12:47:37 PM 37.8019 -76.8217 207° Southwest 374 430 22,000  Level Washington Center
Sat 12:48:35 PM 37.7097 -76.8781 206° Southwest 369 425 22,000  Level Washington Center
Sat 12:49:35 PM 37.6214 -76.9342 207° Southwest 369 425 22,000  Level Washington Center
Sat 12:50:36 PM 37.5289 -76.9928 207° Southwest 369 425 22,000  Level Washington Center
Sat 12:51:36 PM 37.4239 -77.0589 207° Southwest 381 438 22,000  Level Washington Center
Sat 12:52:37 PM 37.3439 -77.1069 206° Southwest 369 425 22,000  Level Washington Center
Sat 12:53:35 PM 37.2472 -77.1731 209° Southwest 364 419 22,000  Level Washington Center
Sat 12:54:36 PM 37.1567 -77.2336 208° Southwest 369 425 22,000  Level Washington Center
Sat 12:55:37 PM 37.0703 -77.2994 211° Southwest 369 425 22,000  Level Washington Center
Sat 12:56:37 PM 36.9839 -77.3600 209° Southwest 369 425 22,000  Level Washington Center
Sat 12:57:35 PM 36.8953 -77.4281 212° Southwest 369 425 22,000  Level Washington Center
Sat 12:58:36 PM 36.8086 -77.4908 210° Southwest 369 425 22,000  Level Washington Center
Sat 12:59:36 PM 36.7200 -77.5586 212° Southwest 369 425 22,000 -350 Level Washington Center
Sat 01:00:36 PM 36.6311 -77.6236 210° Southwest 369 425 21,300 -843 Descending Washington Center
Sat 01:01:37 PM 36.5425 -77.6886 211° Southwest 369 425 20,300 -1,210 Descending Washington Center
Sat 01:02:35 PM 36.4681 -77.7719 222° Southwest 369 425 18,900 -1,525 Descending Washington Center
Sat 01:03:35 PM 36.4144 -77.8531 231° Southwest 351 404 17,300 -1,623 Descending Washington Center
Sat 01:04:37 PM 36.3481 -77.9336 224° Southwest 346 398 15,600 -1,663 Descending Washington Center
Sat 01:05:16 PM 36.3008 -77.9967 227° Southwest 317 365 14,500 -1,684 Descending Washington Center
Sat 01:05:34 PM 36.2903 -78.0144 234° Southwest 333 383 14,000 -1,475 Descending Washington Center
Sat 01:06:17 PM 36.2408 -78.0747 225° Southwest 308 354 13,000 -1,475 Descending Washington Center
Sat 01:06:35 PM 36.2300 -78.0922 232° Southwest 323 372 12,500 -1,562 Descending Washington Center
Sat 01:07:30 PM 36.1722 -78.1675 226° Southwest 300 345 11,100 -1,475 Descending Washington Center
Sat 01:07:36 PM 36.1722 -78.1650 90° East 315 362 11,000 -1,224 Descending Washington Center
Sat 01:08:19 PM 36.1439 -78.2283 241° Southwest 267 307 10,100 -1,279 Descending Washington Center
Sat 01:08:37 PM 36.1328 -78.2511 239° Southwest 287 330 9,700 -1,400 Descending Washington Center
Sat 01:09:19 PM 36.1108 -78.3044 243° Southwest 236 272 8,700 -1,300 Descending Washington Center
Sat 01:09:37 PM 36.1083 -78.3197 259° West 253 291 8,400 -1,545 Descending Washington Center
Sat 01:10:25 PM 36.0881 -78.3886 250° West 226 260 7,000 -1,655 Descending Washington Center
Sat 01:10:35 PM 36.0836 -78.4011 246° West 246 283 6,800 -968 Descending Washington Center
Sat 01:11:27 PM 36.0653 -78.4647 250° West 234 269 6,000 -885 Descending Washington Center
Sat 01:11:36 PM 36.0672 -78.4700 295° West 241 277 5,900 -1,448 Descending Washington Center
Sat 01:12:25 PM 36.0469 -78.5361 249° West 209 241 4,600 -1,424 Descending Washington Center
Sat 01:12:35 PM 36.0489 -78.5386 314° West 235 270 4,500 -1,183 Descending Washington Center
Sat 01:13:36 PM 36.0286 -78.6022 249° West 219 252 3,200 -750 Descending Washington Center
Sat 01:14:27 PM 35.9958 -78.6522 231° Southwest 175 201 3,100 -100 Descending Washington Center
Sat 01:14:36 PM 35.9981 -78.6522 360° North 197 227 3,100 -436 Level Washington Center
Sat 01:15:22 PM 35.9681 -78.6844 221° Southwest 165 190 2,700 -709 Descending Washington Center
Sat 01:16:26 PM 35.9397 -78.7244 229° Southwest 137 158 1,800 -734 Descending Washington Center
Sat 01:17:41 PM 35.9056 -78.7617 221° Southwest 120 138 1,000 -640 Descending Washington Center
Sat 01:19:00 PM 35.8776 -78.7875 219° Southwest  Level Estimated
Sat 01:26:00 PM 35.8776 -78.7875 349° North  Level Estimated

Login

Don't have an account? Register now (free) for customized features, flight alerts, and more!